createdAt,value
2022-09-24T00:01:38.642Z,16.30
2022-09-24T00:03:43.631Z,16.30
2022-09-24T00:05:50.568Z,16.30
2022-09-24T00:07:53.436Z,16.30
2022-09-24T00:09:56.147Z,16.30
2022-09-24T00:12:00.551Z,16.30
2022-09-24T00:14:03.916Z,16.30
2022-09-24T00:16:10.613Z,16.30
2022-09-24T00:18:14.544Z,16.30
2022-09-24T00:20:17.546Z,16.30
2022-09-24T00:22:21.629Z,16.30
2022-09-24T00:24:41.974Z,16.30
2022-09-24T00:26:50.793Z,16.30
2022-09-24T00:28:53.776Z,16.20
2022-09-24T00:30:59.047Z,16.20
2022-09-24T00:33:02.211Z,16.20
2022-09-24T00:35:06.699Z,16.20
2022-09-24T00:37:09.500Z,16.10
2022-09-24T00:39:14.305Z,16.10
2022-09-24T00:41:17.081Z,16.10
2022-09-24T00:43:27.854Z,16.10
2022-09-24T00:45:32.434Z,16.10
2022-09-24T00:47:39.600Z,16.10
2022-09-24T00:49:43.923Z,16.10
2022-09-24T00:51:49.266Z,16.10
2022-09-24T00:53:55.909Z,16.00
2022-09-24T00:56:03.236Z,16.00
2022-09-24T00:58:09.208Z,16.00
2022-09-24T01:00:13.466Z,15.90
2022-09-24T01:02:16.208Z,15.90
2022-09-24T01:04:21.496Z,15.80
2022-09-24T01:06:25.530Z,15.80
2022-09-24T01:08:28.328Z,15.80
2022-09-24T01:10:51.725Z,15.70
2022-09-24T01:13:03.238Z,15.70
2022-09-24T01:15:17.931Z,15.70
2022-09-24T01:17:30.048Z,15.60
2022-09-24T01:19:59.320Z,15.60
2022-09-24T01:22:08.170Z,15.60
2022-09-24T01:24:32.261Z,15.50
2022-09-24T01:26:48.968Z,15.50
2022-09-24T01:29:06.714Z,15.40
2022-09-24T01:31:18.153Z,15.30
2022-09-24T01:33:25.708Z,15.30
2022-09-24T01:35:34.080Z,15.30
2022-09-24T01:37:41.063Z,15.30
2022-09-24T01:39:45.666Z,15.20
2022-09-24T01:41:50.078Z,15.20
2022-09-24T01:43:53.062Z,15.10
2022-09-24T01:45:59.091Z,15.10
2022-09-24T01:48:05.170Z,15.10
2022-09-24T01:50:09.644Z,15.10
2022-09-24T01:52:17.204Z,15.10
2022-09-24T01:54:24.413Z,15.10
2022-09-24T01:56:31.355Z,15.00
2022-09-24T01:58:38.565Z,15.00
2022-09-24T02:00:46.149Z,15.00
2022-09-24T02:02:56.462Z,14.90
2022-09-24T02:05:07.272Z,14.90
2022-09-24T02:07:16.099Z,14.80
2022-09-24T02:09:33.602Z,14.80
2022-09-24T02:11:38.207Z,14.70
2022-09-24T02:13:46.859Z,14.70
2022-09-24T02:15:53.429Z,14.70
2022-09-24T02:18:00.418Z,14.60
2022-09-24T02:20:10.479Z,14.60
2022-09-24T02:22:15.093Z,14.60
2022-09-24T02:24:20.139Z,14.50
2022-09-24T02:26:23.241Z,14.50
2022-09-24T02:28:27.700Z,14.60
2022-09-24T02:30:34.390Z,14.50
2022-09-24T02:32:40.693Z,14.50
2022-09-24T02:34:47.217Z,14.50
2022-09-24T02:36:53.763Z,14.50
2022-09-24T02:38:56.520Z,14.50
2022-09-24T02:40:59.590Z,14.50
2022-09-24T02:43:02.378Z,14.50
2022-09-24T02:45:05.714Z,14.50
2022-09-24T02:47:09.147Z,14.50
2022-09-24T02:49:12.420Z,14.40
2022-09-24T02:51:15.144Z,14.40
2022-09-24T02:53:19.275Z,14.40
2022-09-24T02:55:21.992Z,14.40
2022-09-24T02:57:24.824Z,14.40
2022-09-24T02:59:27.731Z,14.40
2022-09-24T03:01:31.664Z,14.40
2022-09-24T03:03:34.506Z,14.40
2022-09-24T03:05:37.180Z,14.30
2022-09-24T03:07:40.043Z,14.40
2022-09-24T03:09:44.223Z,14.40
2022-09-24T03:11:47.451Z,14.40
2022-09-24T03:13:51.178Z,14.40
2022-09-24T03:15:54.523Z,14.50
2022-09-24T03:17:57.717Z,14.50
2022-09-24T03:20:00.429Z,14.40
2022-09-24T03:22:03.305Z,14.40
2022-09-24T03:24:06.506Z,14.40
2022-09-24T03:26:11.346Z,14.50
2022-09-24T03:28:14.087Z,14.50
2022-09-24T03:30:34.773Z,14.50
2022-09-24T03:32:39.097Z,14.50
2022-09-24T03:34:41.844Z,14.50
2022-09-24T03:36:44.507Z,14.40
2022-09-24T03:38:48.519Z,14.40
2022-09-24T03:40:54.059Z,14.40
2022-09-24T03:42:58.281Z,14.40
2022-09-24T03:45:00.987Z,14.40
2022-09-24T03:47:04.038Z,14.40
2022-09-24T03:49:06.732Z,14.40
2022-09-24T03:51:11.043Z,14.40
2022-09-24T03:53:14.252Z,14.40
2022-09-24T03:55:17.167Z,14.50
2022-09-24T03:57:19.902Z,14.50
2022-09-24T03:59:24.152Z,14.40
2022-09-24T04:01:27.538Z,14.50
2022-09-24T04:03:30.439Z,14.50
2022-09-24T04:05:33.530Z,14.50
2022-09-24T04:07:36.269Z,14.50
2022-09-24T04:09:38.981Z,14.50
2022-09-24T04:11:42.801Z,14.50
2022-09-24T04:13:45.796Z,14.50
2022-09-24T04:15:50.295Z,14.60
2022-09-24T04:17:53.880Z,14.50
2022-09-24T04:19:57.037Z,14.50
2022-09-24T04:21:59.847Z,14.60
2022-09-24T04:24:02.912Z,14.60
2022-09-24T04:26:05.654Z,14.60
2022-09-24T04:28:10.702Z,14.60
2022-09-24T04:30:15.394Z,14.50
2022-09-24T04:32:19.428Z,14.50
2022-09-24T04:34:22.198Z,14.60
2022-09-24T04:36:25.061Z,14.60
2022-09-24T04:38:27.773Z,14.50
2022-09-24T04:40:30.968Z,14.50
2022-09-24T04:42:34.029Z,14.50
2022-09-24T04:44:36.768Z,14.50
2022-09-24T04:46:39.979Z,14.50
2022-09-24T04:48:44.715Z,14.50
2022-09-24T04:50:47.887Z,14.60
2022-09-24T04:52:50.698Z,14.60
2022-09-24T04:54:54.643Z,14.50
2022-09-24T04:56:57.431Z,14.50
2022-09-24T04:59:00.338Z,14.50
2022-09-24T05:01:05.014Z,14.50
2022-09-24T05:03:07.966Z,14.50
2022-09-24T05:05:13.172Z,14.50
2022-09-24T05:07:15.993Z,14.50
2022-09-24T05:09:18.741Z,14.50
2022-09-24T05:11:23.745Z,14.60
2022-09-24T05:13:26.485Z,14.50
2022-09-24T05:15:29.318Z,14.50
2022-09-24T05:17:32.551Z,14.50
2022-09-24T05:19:35.404Z,14.60
2022-09-24T05:21:39.509Z,14.60
2022-09-24T05:23:42.185Z,14.50
2022-09-24T05:25:58.971Z,14.50
2022-09-24T05:28:11.020Z,14.50
2022-09-24T05:30:14.581Z,14.60
2022-09-24T05:32:20.178Z,14.50
2022-09-24T05:34:23.005Z,14.50
2022-09-24T05:36:26.928Z,14.50
2022-09-24T05:38:32.944Z,14.50
2022-09-24T05:40:50.735Z,14.60
2022-09-24T05:42:53.511Z,14.60
2022-09-24T05:44:56.257Z,14.60
2022-09-24T05:46:59.847Z,14.60
2022-09-24T05:49:02.705Z,14.60
2022-09-24T05:51:06.083Z,14.60
2022-09-24T05:53:09.352Z,14.70
2022-09-24T05:55:13.507Z,14.70
2022-09-24T05:57:16.508Z,14.70
2022-09-24T05:59:19.383Z,14.70
2022-09-24T06:01:22.237Z,14.80
2022-09-24T06:03:25.087Z,14.80
2022-09-24T06:05:28.060Z,14.80
2022-09-24T06:07:31.103Z,14.80
2022-09-24T06:09:33.817Z,14.90
2022-09-24T06:11:40.894Z,14.90
2022-09-24T06:13:44.014Z,15.00
2022-09-24T06:15:47.082Z,15.00
2022-09-24T06:17:50.117Z,15.00
2022-09-24T06:19:52.853Z,15.10
2022-09-24T06:21:57.072Z,15.10
2022-09-24T06:23:59.970Z,15.10
2022-09-24T06:26:03.170Z,15.10
2022-09-24T06:28:07.307Z,15.20
2022-09-24T06:30:11.890Z,15.20
2022-09-24T06:32:14.614Z,15.30
2022-09-24T06:34:17.464Z,15.30
2022-09-24T06:36:20.422Z,15.40
2022-09-24T06:38:23.315Z,15.40
2022-09-24T06:40:26.722Z,15.40
2022-09-24T06:42:30.959Z,15.50
2022-09-24T06:44:35.507Z,15.50
2022-09-24T06:46:38.252Z,15.60
2022-09-24T06:48:41.102Z,15.60
2022-09-24T06:50:45.672Z,15.60
2022-09-24T06:52:48.580Z,15.60
2022-09-24T06:54:51.358Z,15.60
2022-09-24T06:56:54.075Z,15.70
2022-09-24T06:58:56.834Z,15.70
2022-09-24T07:01:02.831Z,15.70
2022-09-24T07:03:06.103Z,15.80
2022-09-24T07:05:10.438Z,15.80
2022-09-24T07:07:32.924Z,15.80
2022-09-24T07:09:36.288Z,15.80
2022-09-24T07:11:39.613Z,15.80
2022-09-24T07:13:42.402Z,15.90
2022-09-24T07:15:46.275Z,15.90
2022-09-24T07:17:50.936Z,15.90
2022-09-24T07:19:53.965Z,16.00
2022-09-24T07:21:56.750Z,16.00
2022-09-24T07:23:59.465Z,16.00
2022-09-24T07:26:02.282Z,16.00
2022-09-24T07:28:08.553Z,16.10
2022-09-24T07:30:12.713Z,16.10
2022-09-24T07:32:17.646Z,16.20
2022-09-24T07:34:22.138Z,16.30
2022-09-24T07:36:24.885Z,16.40
2022-09-24T07:38:27.634Z,16.40
2022-09-24T07:40:31.563Z,16.40
2022-09-24T07:42:34.375Z,16.50
2022-09-24T07:44:37.999Z,16.60
2022-09-24T07:46:40.830Z,16.60
2022-09-24T07:48:43.709Z,16.60
2022-09-24T07:50:47.742Z,16.60
2022-09-24T07:52:51.325Z,16.70
2022-09-24T07:54:54.250Z,16.80
2022-09-24T07:56:57.050Z,16.90
2022-09-24T07:58:59.877Z,16.90
2022-09-24T08:01:03.154Z,17.10
2022-09-24T08:03:06.279Z,17.10
2022-09-24T08:05:09.913Z,17.20
2022-09-24T08:07:15.155Z,17.30
2022-09-24T08:09:18.055Z,17.30
2022-09-24T08:11:22.576Z,17.40
2022-09-24T08:13:27.865Z,17.40
2022-09-24T08:15:30.968Z,17.60
2022-09-24T08:17:33.640Z,17.60
2022-09-24T08:19:36.757Z,17.70
2022-09-24T08:21:40.292Z,17.80
2022-09-24T08:23:44.896Z,17.90
2022-09-24T08:25:47.666Z,18.00
2022-09-24T08:27:50.378Z,18.10
2022-09-24T08:29:53.568Z,18.10
2022-09-24T08:31:56.431Z,18.20
2022-09-24T08:33:59.156Z,18.30
2022-09-24T08:36:02.382Z,18.40
2022-09-24T08:38:05.239Z,18.50
2022-09-24T08:40:17.220Z,18.50
2022-09-24T08:42:31.795Z,18.60
2022-09-24T08:44:58.178Z,18.70
2022-09-24T08:47:21.552Z,18.80
2022-09-24T08:49:27.692Z,18.90
2022-09-24T08:51:37.406Z,19.00
2022-09-24T08:53:48.759Z,19.10
2022-09-24T08:55:55.088Z,19.10
2022-09-24T08:58:05.837Z,19.30
2022-09-24T09:00:15.171Z,19.30
2022-09-24T09:02:40.266Z,19.50
2022-09-24T09:04:57.990Z,19.50
2022-09-24T09:07:10.691Z,19.60
2022-09-24T09:09:18.204Z,19.70
2022-09-24T09:11:29.631Z,19.80
2022-09-24T09:13:37.130Z,19.90
2022-09-24T09:15:43.447Z,20.00
2022-09-24T09:17:50.969Z,20.10
2022-09-24T09:19:57.212Z,20.20
2022-09-24T09:22:03.998Z,20.20
2022-09-24T09:24:13.878Z,20.20
2022-09-24T09:26:18.298Z,20.40
2022-09-24T09:28:22.595Z,20.40
2022-09-24T09:30:25.514Z,20.40
2022-09-24T09:32:48.907Z,20.40
2022-09-24T09:34:59.978Z,20.50
2022-09-24T09:37:15.519Z,20.60
2022-09-24T09:39:29.826Z,20.80
2022-09-24T09:41:41.313Z,20.90
2022-09-24T09:43:45.360Z,20.90
2022-09-24T09:46:00.011Z,20.80
2022-09-24T09:48:03.600Z,20.90
2022-09-24T09:50:14.909Z,20.90
2022-09-24T09:52:21.793Z,21.00
2022-09-24T09:54:37.190Z,21.10
2022-09-24T09:56:46.691Z,21.10
2022-09-24T09:58:55.697Z,21.30
2022-09-24T10:01:07.450Z,21.30
2022-09-24T10:03:23.144Z,21.30
2022-09-24T10:05:28.722Z,21.40
2022-09-24T10:07:32.531Z,21.40
2022-09-24T10:09:36.415Z,21.20
2022-09-24T10:11:39.141Z,21.20
2022-09-24T10:13:41.898Z,21.10
2022-09-24T10:15:53.453Z,21.10
2022-09-24T10:17:56.305Z,21.10
2022-09-24T10:20:02.227Z,21.00
2022-09-24T10:22:10.761Z,20.90
2022-09-24T10:24:18.168Z,20.70
2022-09-24T10:26:20.969Z,20.60
2022-09-24T10:28:42.427Z,20.60
2022-09-24T10:30:57.396Z,20.70
2022-09-24T10:33:02.212Z,20.90
2022-09-24T10:35:21.308Z,20.80
2022-09-24T10:37:24.129Z,20.90
2022-09-24T10:39:29.368Z,21.00
2022-09-24T10:41:33.127Z,21.00
2022-09-24T10:43:35.853Z,21.10
2022-09-24T10:45:58.138Z,21.30
2022-09-24T10:48:09.203Z,21.40
2022-09-24T10:50:30.642Z,21.40
2022-09-24T10:52:47.476Z,21.40
2022-09-24T10:55:03.960Z,21.40
2022-09-24T10:57:18.101Z,21.70
2022-09-24T10:59:30.720Z,22.00
2022-09-24T11:01:43.702Z,22.20
2022-09-24T11:04:20.217Z,22.30
2022-09-24T11:06:39.517Z,22.60
2022-09-24T11:08:58.843Z,22.90
2022-09-24T11:11:16.020Z,23.00
2022-09-24T11:13:27.251Z,23.20
2022-09-24T11:15:45.724Z,23.20
2022-09-24T11:18:01.604Z,23.20
2022-09-24T11:20:21.261Z,23.00
2022-09-24T11:22:34.704Z,23.10
2022-09-24T11:25:05.168Z,23.00
2022-09-24T11:27:30.196Z,23.20
2022-09-24T11:29:49.745Z,23.40
2022-09-24T11:32:06.894Z,23.50
2022-09-24T11:34:27.376Z,23.60
2022-09-24T11:36:44.464Z,23.60
2022-09-24T11:39:05.972Z,23.60
2022-09-24T11:41:24.115Z,23.50
2022-09-24T11:43:54.972Z,23.60
2022-09-24T11:46:12.950Z,23.50
2022-09-24T11:48:38.376Z,23.40
2022-09-24T11:50:54.959Z,23.20
2022-09-24T11:53:06.921Z,23.40
2022-09-24T11:55:16.403Z,23.50
2022-09-24T11:57:25.541Z,23.40
2022-09-24T11:59:37.937Z,23.40
2022-09-24T12:01:47.207Z,23.20
2022-09-24T12:03:58.314Z,23.30
2022-09-24T12:06:06.933Z,23.20
2022-09-24T12:08:16.445Z,23.00
2022-09-24T12:10:36.021Z,23.10
2022-09-24T12:12:43.432Z,23.20
2022-09-24T12:14:52.453Z,23.40
2022-09-24T12:17:01.873Z,23.50
2022-09-24T12:19:10.197Z,23.60
2022-09-24T12:21:16.505Z,23.70
2022-09-24T12:23:27.818Z,23.90
2022-09-24T12:25:39.334Z,23.80
2022-09-24T12:27:46.835Z,23.60
2022-09-24T12:30:14.323Z,23.40
2022-09-24T12:32:41.856Z,23.20
2022-09-24T12:34:55.604Z,23.00
2022-09-24T12:37:02.151Z,22.90
2022-09-24T12:39:09.540Z,22.60
2022-09-24T12:41:29.882Z,22.50
2022-09-24T12:43:39.352Z,22.50
2022-09-24T12:45:42.527Z,22.50
2022-09-24T12:47:49.001Z,22.50
2022-09-24T12:49:57.225Z,22.60
2022-09-24T12:52:02.549Z,22.50
2022-09-24T12:54:21.777Z,22.40
2022-09-24T12:56:27.525Z,22.40
2022-09-24T12:58:36.846Z,22.40
2022-09-24T13:00:42.260Z,22.40
2022-09-24T13:02:47.107Z,22.40
2022-09-24T13:05:03.841Z,22.40
2022-09-24T13:07:39.013Z,22.40
2022-09-24T13:09:44.251Z,22.20
2022-09-24T13:11:47.510Z,21.90
2022-09-24T13:14:19.073Z,21.80
2022-09-24T13:16:22.840Z,21.80
2022-09-24T13:18:25.960Z,21.70
2022-09-24T13:20:28.761Z,21.70
2022-09-24T13:22:33.534Z,21.80
2022-09-24T13:24:50.738Z,21.80
2022-09-24T13:26:53.441Z,22.00
2022-09-24T13:28:58.678Z,22.00
2022-09-24T13:31:11.551Z,22.00
2022-09-24T13:33:24.060Z,21.80
2022-09-24T13:35:30.825Z,21.80
2022-09-24T13:37:39.352Z,21.90
2022-09-24T13:39:46.306Z,21.70
2022-09-24T13:41:58.310Z,21.60
2022-09-24T13:44:05.153Z,21.60
2022-09-24T13:46:16.845Z,21.60
2022-09-24T13:48:29.707Z,21.70
2022-09-24T13:50:36.470Z,21.60
2022-09-24T13:52:43.571Z,21.70
2022-09-24T13:54:52.992Z,21.70
2022-09-24T13:57:08.034Z,21.70
2022-09-24T13:59:13.081Z,21.80
2022-09-24T14:01:19.516Z,21.80
2022-09-24T14:03:26.477Z,21.80
2022-09-24T14:05:31.252Z,21.70
2022-09-24T14:07:34.119Z,21.70
2022-09-24T14:09:38.252Z,21.60
2022-09-24T14:11:50.334Z,21.50
2022-09-24T14:13:56.294Z,21.40
2022-09-24T14:16:02.629Z,21.40
2022-09-24T14:18:10.621Z,21.40
2022-09-24T14:20:16.659Z,21.30
2022-09-24T14:22:23.873Z,21.30
2022-09-24T14:24:30.422Z,21.30
2022-09-24T14:26:36.717Z,21.30
2022-09-24T14:28:39.627Z,21.20
2022-09-24T14:30:52.264Z,21.20
2022-09-24T14:32:57.167Z,21.10
2022-09-24T14:35:02.269Z,21.20
2022-09-24T14:37:11.480Z,21.20
2022-09-24T14:39:14.737Z,21.20
2022-09-24T14:41:21.021Z,21.10
2022-09-24T14:43:28.876Z,21.00
2022-09-24T14:45:36.112Z,21.10
2022-09-24T14:47:40.302Z,21.10
2022-09-24T14:49:45.833Z,21.30
2022-09-24T14:51:56.987Z,21.40
2022-09-24T14:54:02.375Z,21.40
2022-09-24T14:56:21.239Z,21.50
2022-09-24T14:58:36.418Z,21.40
2022-09-24T15:00:49.180Z,21.40
2022-09-24T15:02:58.554Z,21.30
2022-09-24T15:05:06.865Z,21.20
2022-09-24T15:07:16.989Z,21.20
2022-09-24T15:09:25.765Z,21.10
2022-09-24T15:11:31.368Z,21.00
2022-09-24T15:13:36.139Z,20.90
2022-09-24T15:15:39.973Z,20.90
2022-09-24T15:17:42.821Z,21.00
2022-09-24T15:19:47.598Z,21.00
2022-09-24T15:21:52.525Z,21.00
2022-09-24T15:23:56.876Z,20.90
2022-09-24T15:25:59.707Z,20.90
2022-09-24T15:28:02.766Z,20.90
2022-09-24T15:30:08.184Z,21.00
2022-09-24T15:32:17.017Z,21.10
2022-09-24T15:34:20.544Z,21.10
2022-09-24T15:36:25.191Z,21.10
2022-09-24T15:38:29.347Z,21.20
2022-09-24T15:40:33.840Z,21.20
2022-09-24T15:42:36.667Z,21.00
2022-09-24T15:44:39.934Z,20.90
2022-09-24T15:46:43.040Z,20.70
2022-09-24T15:48:46.296Z,20.60
2022-09-24T15:50:50.427Z,20.70
2022-09-24T15:52:59.046Z,20.50
2022-09-24T15:55:03.680Z,20.50
2022-09-24T15:57:06.484Z,20.50
2022-09-24T15:59:13.828Z,20.50
2022-09-24T16:01:19.147Z,20.40
2022-09-24T16:03:25.905Z,20.30
2022-09-24T16:05:28.766Z,20.30
2022-09-24T16:07:31.616Z,20.30
2022-09-24T16:09:35.873Z,20.30
2022-09-24T16:11:38.723Z,20.20
2022-09-24T16:13:41.608Z,20.20
2022-09-24T16:15:44.551Z,20.20
2022-09-24T16:17:49.880Z,20.20
2022-09-24T16:19:52.698Z,20.20
2022-09-24T16:21:55.534Z,20.10
2022-09-24T16:23:58.566Z,20.00
2022-09-24T16:26:03.005Z,20.00
2022-09-24T16:28:05.855Z,19.80
2022-09-24T16:30:09.655Z,19.80
2022-09-24T16:32:13.934Z,19.70
2022-09-24T16:34:18.643Z,19.70
2022-09-24T16:36:23.804Z,19.60
2022-09-24T16:38:28.725Z,19.50
2022-09-24T16:40:34.762Z,19.50
2022-09-24T16:42:38.914Z,19.50
2022-09-24T16:44:41.782Z,19.50
2022-09-24T16:46:45.447Z,19.50
2022-09-24T16:48:50.176Z,19.50
2022-09-24T16:50:53.021Z,19.40
2022-09-24T16:52:55.977Z,19.40
2022-09-24T16:54:59.236Z,19.30
2022-09-24T16:57:03.396Z,19.30
2022-09-24T16:59:07.424Z,19.20
2022-09-24T17:01:12.357Z,19.20
2022-09-24T17:03:15.359Z,19.20
2022-09-24T17:05:18.397Z,19.20
2022-09-24T17:07:21.146Z,19.20
2022-09-24T17:09:41.388Z,19.20
2022-09-24T17:11:46.692Z,19.30
2022-09-24T17:13:50.243Z,19.30
2022-09-24T17:15:54.435Z,19.20
2022-09-24T17:17:59.398Z,19.10
2022-09-24T17:20:02.481Z,19.00
2022-09-24T17:22:05.178Z,18.90
2022-09-24T17:24:09.068Z,18.90
2022-09-24T17:26:14.895Z,18.80
2022-09-24T17:28:17.596Z,18.70
2022-09-24T17:30:21.440Z,18.50
2022-09-24T17:32:25.787Z,18.40
2022-09-24T17:34:28.581Z,18.30
2022-09-24T17:36:33.012Z,18.20
2022-09-24T17:38:36.968Z,18.30
2022-09-24T17:40:40.021Z,18.30
2022-09-24T17:42:47.133Z,18.20
2022-09-24T17:44:49.866Z,18.20
2022-09-24T17:46:52.689Z,18.20
2022-09-24T17:48:58.494Z,18.00
2022-09-24T17:51:03.473Z,18.00
2022-09-24T17:53:06.249Z,17.90
2022-09-24T17:55:09.507Z,17.80
2022-09-24T17:57:12.272Z,17.80
2022-09-24T17:59:15.986Z,17.70
2022-09-24T18:01:21.229Z,17.70
2022-09-24T18:03:24.067Z,17.50
2022-09-24T18:05:28.230Z,17.60
2022-09-24T18:07:31.051Z,17.50
2022-09-24T18:09:33.873Z,17.40
2022-09-24T18:11:41.092Z,17.50
2022-09-24T18:13:43.929Z,17.40
2022-09-24T18:15:47.433Z,17.40
2022-09-24T18:17:50.317Z,17.40
2022-09-24T18:19:53.138Z,17.40
2022-09-24T18:21:59.222Z,17.40
2022-09-24T18:24:02.805Z,17.40
2022-09-24T18:26:11.885Z,17.40
2022-09-24T18:28:18.610Z,17.30
2022-09-24T18:30:22.139Z,17.30
2022-09-24T18:32:26.310Z,17.40
2022-09-24T18:34:29.874Z,17.30
2022-09-24T18:36:33.913Z,17.40
2022-09-24T18:38:38.172Z,17.50
2022-09-24T18:40:41.039Z,17.50
2022-09-24T18:42:43.911Z,17.50
2022-09-24T18:44:47.547Z,17.50
2022-09-24T18:46:50.506Z,17.40
2022-09-24T18:48:55.685Z,17.30
2022-09-24T18:50:58.817Z,17.30
2022-09-24T18:53:01.512Z,17.30
2022-09-24T18:55:06.856Z,17.30
2022-09-24T18:57:09.668Z,17.40
2022-09-24T18:59:14.397Z,17.40
2022-09-24T19:01:18.972Z,17.20
2022-09-24T19:03:23.457Z,17.20
2022-09-24T19:05:26.298Z,17.30
2022-09-24T19:07:30.529Z,17.30
2022-09-24T19:09:33.352Z,17.30
2022-09-24T19:11:38.000Z,17.40
2022-09-24T19:13:42.373Z,17.40
2022-09-24T19:15:45.271Z,17.50
2022-09-24T19:17:48.970Z,17.50
2022-09-24T19:19:52.665Z,17.60
2022-09-24T19:21:59.392Z,17.60
2022-09-24T19:24:02.724Z,17.50
2022-09-24T19:26:06.330Z,17.40
2022-09-24T19:28:12.972Z,17.40
2022-09-24T19:30:17.098Z,17.40
2022-09-24T19:32:19.884Z,17.40
2022-09-24T19:34:22.689Z,17.40
2022-09-24T19:36:25.837Z,17.30
2022-09-24T19:38:31.330Z,17.30
2022-09-24T19:40:34.582Z,17.30
2022-09-24T19:42:40.354Z,17.20
2022-09-24T19:44:44.664Z,17.20
2022-09-24T19:46:47.566Z,17.20
2022-09-24T19:48:51.338Z,17.00
2022-09-24T19:50:55.168Z,17.00
2022-09-24T19:52:58.008Z,17.00
2022-09-24T19:55:00.856Z,17.00
2022-09-24T19:57:03.631Z,17.00
2022-09-24T19:59:08.696Z,17.10
2022-09-24T20:01:17.033Z,17.20
2022-09-24T20:03:25.983Z,17.30
2022-09-24T20:05:28.758Z,17.30
2022-09-24T20:07:31.498Z,17.40
2022-09-24T20:09:34.308Z,17.30
2022-09-24T20:11:37.262Z,17.40
2022-09-24T20:13:42.946Z,17.30
2022-09-24T20:15:45.945Z,17.30
2022-09-24T20:17:53.665Z,17.40
2022-09-24T20:19:56.473Z,17.30
2022-09-24T20:21:59.293Z,17.40
2022-09-24T20:24:04.663Z,17.30
2022-09-24T20:26:25.570Z,17.20
2022-09-24T20:28:33.654Z,17.20
2022-09-24T20:30:37.933Z,17.30
2022-09-24T20:32:42.449Z,17.40
2022-09-24T20:34:46.653Z,17.50
2022-09-24T20:36:49.463Z,17.60
2022-09-24T20:38:52.602Z,17.50
2022-09-24T20:40:59.607Z,17.40
2022-09-24T20:43:09.136Z,17.20
2022-09-24T20:45:11.987Z,17.20
2022-09-24T20:47:14.671Z,17.20
2022-09-24T20:49:22.315Z,17.20
2022-09-24T20:51:28.184Z,17.40
2022-09-24T20:53:30.916Z,17.50
2022-09-24T20:55:33.627Z,17.60
2022-09-24T20:57:36.457Z,17.60
2022-09-24T20:59:39.780Z,17.60
2022-09-24T21:01:43.293Z,17.70
2022-09-24T21:03:47.816Z,17.70
2022-09-24T21:05:50.768Z,17.80
2022-09-24T21:07:55.178Z,17.80
2022-09-24T21:09:57.934Z,17.90
2022-09-24T21:12:01.432Z,17.90
2022-09-24T21:14:04.346Z,17.90
2022-09-24T21:16:07.922Z,18.00
2022-09-24T21:18:22.757Z,18.00
2022-09-24T21:20:26.998Z,18.00
2022-09-24T21:22:30.156Z,18.00
2022-09-24T21:24:34.815Z,18.10
2022-09-24T21:26:39.262Z,18.10
2022-09-24T21:28:43.467Z,18.10
2022-09-24T21:30:57.703Z,18.00
2022-09-24T21:33:00.520Z,18.00
2022-09-24T21:35:03.266Z,18.00
2022-09-24T21:37:06.045Z,18.00
2022-09-24T21:39:13.560Z,18.00
2022-09-24T21:41:17.926Z,18.00
2022-09-24T21:43:25.759Z,18.00
2022-09-24T21:45:30.119Z,18.00
2022-09-24T21:47:32.867Z,17.90
2022-09-24T21:49:38.830Z,18.00
2022-09-24T21:51:41.948Z,17.90
2022-09-24T21:53:44.838Z,17.90
2022-09-24T21:55:48.982Z,17.90
2022-09-24T21:57:53.071Z,17.90
2022-09-24T22:00:04.021Z,18.00
2022-09-24T22:02:07.101Z,18.00
2022-09-24T22:04:09.925Z,18.00
2022-09-24T22:06:13.095Z,18.00
2022-09-24T22:08:16.795Z,17.90
2022-09-24T22:10:19.544Z,17.90
2022-09-24T22:12:22.574Z,17.90
2022-09-24T22:14:28.632Z,17.80
2022-09-24T22:16:32.696Z,17.80
2022-09-24T22:18:37.032Z,17.70
2022-09-24T22:20:44.477Z,17.50
2022-09-24T22:22:47.189Z,17.40
2022-09-24T22:24:50.026Z,17.20
2022-09-24T22:26:54.059Z,17.10
2022-09-24T22:28:56.899Z,17.00
2022-09-24T22:31:04.826Z,17.00
2022-09-24T22:33:07.667Z,17.10
2022-09-24T22:35:29.663Z,17.20
2022-09-24T22:37:32.846Z,17.30
2022-09-24T22:39:36.364Z,17.20
2022-09-24T22:41:42.855Z,17.10
2022-09-24T22:43:46.003Z,17.00
2022-09-24T22:45:48.944Z,17.10
2022-09-24T22:47:55.152Z,17.20
2022-09-24T22:49:57.913Z,17.10
2022-09-24T22:52:00.803Z,17.10
2022-09-24T22:54:03.692Z,17.10
2022-09-24T22:56:09.493Z,17.00
2022-09-24T22:58:12.224Z,16.90
2022-09-24T23:00:18.035Z,16.90
2022-09-24T23:02:22.110Z,16.90
2022-09-24T23:04:26.249Z,16.90
2022-09-24T23:06:30.388Z,17.00
2022-09-24T23:08:34.131Z,17.10
2022-09-24T23:10:36.860Z,17.20
2022-09-24T23:12:39.572Z,17.30
2022-09-24T23:14:42.313Z,17.40
2022-09-24T23:16:46.136Z,17.30
2022-09-24T23:18:52.045Z,17.30
2022-09-24T23:20:57.531Z,17.20
2022-09-24T23:23:00.326Z,17.10
2022-09-24T23:25:03.233Z,17.10
2022-09-24T23:27:06.031Z,17.00
2022-09-24T23:29:09.322Z,17.00
2022-09-24T23:31:14.783Z,16.90
2022-09-24T23:33:17.636Z,16.90
2022-09-24T23:35:21.323Z,16.90
2022-09-24T23:37:25.418Z,17.00
2022-09-24T23:39:28.510Z,16.90
2022-09-24T23:41:31.859Z,16.90
2022-09-24T23:43:35.404Z,16.90
2022-09-24T23:45:38.174Z,16.90
2022-09-24T23:47:40.935Z,17.00
2022-09-24T23:49:43.742Z,17.00
2022-09-24T23:51:46.449Z,17.00
2022-09-24T23:53:50.525Z,16.90
2022-09-24T23:55:54.951Z,16.80
2022-09-24T23:57:57.756Z,16.80
